Time;durP1;ratioP1;P1;durP2;ratioP2;P2;SDS_P1;SDS_P2;PMS_P1;PMS_P2;Temp;Humidity;BMP_temperature;BMP_pressure;BME280_temperature;BME280_humidity;BME280_pressure;Samples;Min_cycle;Max_cycle;Signal;HPM_P1;HPM_P2
2023/02/23 00:02:06;;;;;;;24.85;21.27;;;7.50;99.90;;;;;;4192451;28;20060;-87
2023/02/23 00:04:26;;;;;;;22.30;19.00;;;7.40;99.90;;;;;;4198828;28;20123;-87
2023/02/23 00:06:45;;;;;;;20.00;18.15;;;7.40;99.90;;;;;;4190072;28;20052;-87
2023/02/23 00:09:13;;;;;;;19.35;17.40;;;7.50;99.90;;;;;;4190114;28;20071;-87
2023/02/23 00:11:34;;;;;;;17.92;16.50;;;7.60;99.90;;;;;;4178583;28;20068;-87
2023/02/23 00:13:55;;;;;;;19.80;17.85;;;7.60;99.90;;;;;;4197564;28;20082;-87
2023/02/23 00:16:23;;;;;;;22.05;19.85;;;7.50;99.90;;;;;;4184998;28;20052;-87
2023/02/23 00:18:47;;;;;;;20.98;18.45;;;7.50;99.90;;;;;;4195645;28;20048;-87
2023/02/23 00:21:07;;;;;;;19.33;17.85;;;7.50;99.90;;;;;;4188370;28;20043;-87
2023/02/23 00:23:27;;;;;;;28.77;22.42;;;7.40;99.90;;;;;;4184579;28;20109;-87
2023/02/23 00:25:48;;;;;;;19.30;17.00;;;7.20;99.90;;;;;;4195100;28;20047;-87
2023/02/23 00:28:08;;;;;;;20.10;17.10;;;7.20;99.90;;;;;;4190710;28;20063;-87
2023/02/23 00:30:29;;;;;;;18.63;16.98;;;7.30;99.90;;;;;;4187139;28;20047;-86
2023/02/23 00:32:51;;;;;;;19.67;17.85;;;7.30;99.90;;;;;;4193264;28;20048;-86
2023/02/23 00:35:16;;;;;;;18.38;16.83;;;7.30;99.90;;;;;;4197573;28;20373;-86
2023/02/23 00:37:37;;;;;;;15.63;14.35;;;7.30;99.90;;;;;;4180958;28;20059;-87
2023/02/23 00:39:57;;;;;;;18.45;16.95;;;7.40;99.90;;;;;;4176980;28;20048;-87
2023/02/23 00:42:18;;;;;;;19.63;17.85;;;7.20;99.90;;;;;;4185168;28;20048;-86
2023/02/23 00:44:39;;;;;;;19.08;17.27;;;6.80;99.90;;;;;;4186011;28;20091;-87
2023/02/23 00:47:00;;;;;;;18.38;16.52;;;6.60;99.90;;;;;;4184490;28;20048;-87
2023/02/23 00:49:22;;;;;;;19.20;17.30;;;6.50;99.90;;;;;;4189311;28;20048;-87
2023/02/23 00:51:43;;;;;;;18.73;16.75;;;6.50;99.90;;;;;;4186833;28;20068;-86
2023/02/23 00:54:04;;;;;;;18.15;16.35;;;6.50;99.90;;;;;;4192842;28;20036;-87
2023/02/23 00:56:24;;;;;;;16.58;14.93;;;6.50;99.90;;;;;;4179032;28;20052;-87
2023/02/23 00:58:44;;;;;;;16.23;14.88;;;6.60;99.90;;;;;;4189530;28;20063;-87
2023/02/23 01:01:12;;;;;;;16.67;15.40;;;6.70;99.90;;;;;;4196520;28;20290;-87
2023/02/23 01:03:32;;;;;;;15.73;14.38;;;6.80;99.90;;;;;;4192991;28;20757;-86
2023/02/23 01:05:54;;;;;;;15.95;14.70;;;6.90;99.90;;;;;;4195466;28;20052;-87
2023/02/23 01:08:14;;;;;;;15.82;14.32;;;7.00;99.90;;;;;;4191829;28;20117;-87
2023/02/23 01:10:38;;;;;;;15.60;14.30;;;7.10;99.90;;;;;;4193319;28;20063;-87
2023/02/23 01:12:58;;;;;;;16.73;15.48;;;7.10;99.90;;;;;;4196174;28;20267;-87
2023/02/23 01:15:20;;;;;;;16.20;15.07;;;7.10;99.90;;;;;;4188309;28;20048;-87
2023/02/23 01:17:41;;;;;;;16.63;15.45;;;7.20;99.90;;;;;;4182644;28;20064;-87
2023/02/23 01:20:06;;;;;;;21.60;19.52;;;7.10;99.90;;;;;;4191825;28;20075;-87
2023/02/23 01:22:26;;;;;;;20.85;18.77;;;7.10;99.90;;;;;;4188153;28;20055;-87
2023/02/23 01:24:46;;;;;;;18.85;17.40;;;7.00;99.90;;;;;;4192657;28;20047;-87
2023/02/23 01:27:07;;;;;;;26.88;18.50;;;6.90;99.90;;;;;;4197223;28;20090;-87
2023/02/23 01:29:27;;;;;;;17.88;16.17;;;6.90;99.90;;;;;;4180816;28;20049;-87
2023/02/23 01:31:51;;;;;;;19.45;17.05;;;6.90;99.90;;;;;;4189191;28;20044;-87
2023/02/23 01:34:13;;;;;;;20.75;18.65;;;6.90;99.90;;;;;;4194934;28;20120;-87
2023/02/23 01:36:37;;;;;;;20.50;18.75;;;6.80;99.90;;;;;;4188148;28;20060;-87
2023/02/23 01:38:58;;;;;;;20.58;18.58;;;6.70;99.90;;;;;;4189904;28;20043;-87
2023/02/23 01:41:20;;;;;;;19.70;17.65;;;6.60;99.90;;;;;;4193090;28;20063;-87
2023/02/23 01:44:03;;;;;;;18.45;16.70;;;6.50;99.90;;;;;;4191012;28;20070;-87
2023/02/23 01:46:23;;;;;;;16.83;15.18;;;6.60;99.90;;;;;;4190643;28;20044;-87
2023/02/23 01:48:43;;;;;;;18.30;16.55;;;6.40;99.90;;;;;;4178654;28;20052;-87
2023/02/23 01:51:14;;;;;;;16.85;15.52;;;6.40;99.90;;;;;;4193827;28;20078;-87
2023/02/23 01:53:38;;;;;;;16.17;14.30;;;6.30;99.90;;;;;;4182928;28;20091;-87
2023/02/23 01:56:10;;;;;;;16.85;15.32;;;6.30;99.90;;;;;;4189214;28;20041;-87
2023/02/23 01:58:32;;;;;;;16.60;15.43;;;6.30;99.90;;;;;;4187710;28;20073;-87
2023/02/23 02:00:56;;;;;;;16.90;15.50;;;6.40;99.90;;;;;;4185147;28;20055;-87
2023/02/23 02:03:42;;;;;;;17.52;15.68;;;6.40;99.90;;;;;;4174448;28;20060;-87
2023/02/23 02:06:03;;;;;;;18.35;16.50;;;6.50;99.90;;;;;;4180851;28;20083;-87
2023/02/23 02:08:25;;;;;;;18.30;16.70;;;6.50;99.90;;;;;;4191350;28;20107;-86
2023/02/23 02:10:46;;;;;;;17.63;16.13;;;6.50;99.90;;;;;;4193098;28;20052;-87
2023/02/23 02:13:09;;;;;;;18.20;16.77;;;6.50;99.90;;;;;;4193962;28;20044;-87
2023/02/23 02:15:32;;;;;;;20.53;16.77;;;6.50;99.90;;;;;;4188700;28;20119;-87
2023/02/23 02:18:07;;;;;;;17.52;15.95;;;6.50;99.90;;;;;;4184472;28;20332;-87
2023/02/23 02:20:52;;;;;;;18.80;16.92;;;6.60;99.90;;;;;;4184613;28;20113;-87
2023/02/23 02:23:42;;;;;;;18.98;17.27;;;6.60;99.90;;;;;;4188529;28;20243;-87
2023/02/23 02:26:19;;;;;;;18.83;16.75;;;6.60;99.90;;;;;;4194552;28;20040;-87
2023/02/23 02:28:48;;;;;;;17.90;16.38;;;6.50;99.90;;;;;;4190469;28;20098;-87
2023/02/23 02:31:30;;;;;;;19.42;17.88;;;6.50;99.90;;;;;;4197556;28;20051;-87
2023/02/23 02:34:43;;;;;;;19.30;17.45;;;6.40;99.90;;;;;;4193390;28;20067;-87
2023/02/23 02:37:25;;;;;;;17.63;16.33;;;6.40;99.90;;;;;;4170108;28;20078;-87
2023/02/23 02:40:14;;;;;;;19.83;17.80;;;6.40;99.90;;;;;;4192048;28;20059;-87
2023/02/23 02:42:47;;;;;;;19.63;17.83;;;6.40;99.90;;;;;;4197642;28;20476;-87
2023/02/23 02:45:13;;;;;;;19.77;18.05;;;6.50;99.90;;;;;;4194134;28;20115;-87
2023/02/23 02:48:05;;;;;;;18.73;16.85;;;6.50;99.90;;;;;;4189064;28;20059;-87
2023/02/23 02:50:45;;;;;;;20.02;17.80;;;6.50;99.90;;;;;;4191185;28;20056;-87
2023/02/23 02:53:07;;;;;;;18.15;15.65;;;6.50;99.90;;;;;;4190863;28;20048;-87
2023/02/23 02:55:36;;;;;;;19.13;17.02;;;6.50;99.90;;;;;;4194586;28;20045;-87
2023/02/23 02:57:58;;;;;;;20.02;18.30;;;6.50;99.90;;;;;;4187554;28;20109;-87
2023/02/23 04:18:14;;;;;;;19.08;17.02;;;6.10;99.90;;;;;;4191696;28;20060;-87
2023/02/23 04:20:34;;;;;;;18.20;16.60;;;6.10;99.90;;;;;;4197881;28;20070;-87
2023/02/23 04:22:54;;;;;;;18.75;17.20;;;6.10;99.90;;;;;;4190265;28;20307;-87
2023/02/23 04:25:15;;;;;;;20.23;18.33;;;6.00;99.90;;;;;;4189646;28;20086;-87
2023/02/23 04:27:37;;;;;;;20.38;18.35;;;6.00;99.90;;;;;;4207296;28;20327;-87
2023/02/23 04:29:56;;;;;;;18.67;17.08;;;6.00;99.90;;;;;;4189283;28;20386;-87
2023/02/23 04:32:19;;;;;;;19.17;17.48;;;6.00;99.90;;;;;;4194735;28;20072;-87
2023/02/23 04:34:39;;;;;;;18.38;16.98;;;5.90;99.90;;;;;;4192960;28;20071;-87
2023/02/23 04:36:59;;;;;;;18.27;16.98;;;6.00;99.90;;;;;;4186531;28;20107;-87
2023/02/23 04:39:19;;;;;;;21.77;17.98;;;6.00;99.90;;;;;;4188590;28;20040;-87
2023/02/23 04:41:41;;;;;;;19.40;18.05;;;6.00;99.90;;;;;;4186217;28;20074;-87
2023/02/23 04:44:00;;;;;;;20.90;18.73;;;5.90;99.90;;;;;;4187927;28;20052;-87
2023/02/23 04:46:23;;;;;;;21.85;19.65;;;6.00;99.90;;;;;;4193355;28;20051;-87
2023/02/23 04:48:43;;;;;;;20.27;18.27;;;6.00;99.90;;;;;;4194282;28;20051;-87
2023/02/23 04:51:03;;;;;;;21.10;18.90;;;6.10;99.90;;;;;;4176583;28;20068;-87
2023/02/23 04:53:24;;;;;;;21.13;18.70;;;6.00;99.90;;;;;;4197856;28;20370;-87
2023/02/23 04:55:43;;;;;;;23.20;17.52;;;6.00;99.90;;;;;;4195546;28;20040;-87
2023/02/23 04:58:12;;;;;;;19.83;17.92;;;6.10;99.90;;;;;;4181348;28;20056;-87
2023/02/23 05:00:32;;;;;;;19.73;17.90;;;6.20;99.90;;;;;;4182447;28;20240;-87
2023/02/23 05:02:52;;;;;;;18.55;16.65;;;6.20;99.90;;;;;;4210717;28;20251;-88
2023/02/23 05:05:12;;;;;;;20.80;18.60;;;6.30;99.90;;;;;;4185038;28;20109;-87
2023/02/23 05:07:32;;;;;;;17.73;16.23;;;6.30;99.90;;;;;;4198516;28;20087;-87
2023/02/23 05:09:52;;;;;;;19.75;17.83;;;6.40;99.90;;;;;;4193185;28;20339;-87
2023/02/23 05:12:13;;;;;;;21.63;19.45;;;6.40;99.90;;;;;;4192974;28;20048;-87
2023/02/23 05:14:33;;;;;;;17.55;16.05;;;6.30;99.90;;;;;;4195397;28;20082;-87
2023/02/23 05:16:54;;;;;;;21.92;17.80;;;6.30;99.90;;;;;;4195270;28;20128;-87
2023/02/23 05:19:14;;;;;;;20.13;18.25;;;6.30;99.90;;;;;;4193227;28;20108;-87
2023/02/23 05:21:35;;;;;;;19.08;17.10;;;6.30;99.90;;;;;;4188623;28;20067;-87
2023/02/23 05:23:56;;;;;;;19.48;17.73;;;6.20;99.90;;;;;;4197216;28;20051;-87
2023/02/23 05:26:17;;;;;;;18.33;16.75;;;6.20;99.90;;;;;;4186760;28;20362;-87
2023/02/23 05:28:40;;;;;;;18.80;16.95;;;6.10;99.90;;;;;;4186011;28;20035;-87
2023/02/23 05:31:02;;;;;;;20.23;18.13;;;6.20;99.90;;;;;;4200284;28;20063;-87
2023/02/23 05:33:22;;;;;;;19.77;17.90;;;6.20;99.90;;;;;;4191789;28;20056;-87
2023/02/23 05:35:42;;;;;;;18.92;17.35;;;6.20;99.90;;;;;;4193563;28;20339;-87
2023/02/23 05:38:02;;;;;;;19.35;17.85;;;6.30;99.90;;;;;;4191212;28;20044;-87
2023/02/23 05:40:22;;;;;;;19.05;17.45;;;6.30;99.90;;;;;;4184826;28;20244;-87
2023/02/23 05:42:42;;;;;;;22.33;19.92;;;6.30;99.90;;;;;;4191228;28;20117;-87
2023/02/23 05:45:03;;;;;;;19.73;17.70;;;6.20;99.90;;;;;;4184058;28;20090;-87
2023/02/23 05:47:23;;;;;;;24.58;21.85;;;6.20;99.90;;;;;;4186221;28;20120;-87
2023/02/23 05:49:45;;;;;;;20.30;18.35;;;6.20;99.90;;;;;;4189640;28;20087;-87
2023/02/23 05:52:05;;;;;;;22.20;19.95;;;6.20;99.90;;;;;;4193998;28;20104;-87
2023/02/23 05:54:26;;;;;;;17.65;16.20;;;6.10;99.90;;;;;;4186799;28;20056;-87
2023/02/23 05:56:47;;;;;;;18.45;16.88;;;6.20;99.90;;;;;;4186313;28;20116;-87
2023/02/23 05:59:07;;;;;;;22.05;19.92;;;6.20;99.90;;;;;;4182752;28;20252;-87
2023/02/23 06:01:28;;;;;;;19.95;18.02;;;6.20;99.90;;;;;;4186820;28;20054;-87
2023/02/23 06:03:48;;;;;;;20.08;18.27;;;6.20;99.90;;;;;;4184777;28;20613;-87
2023/02/23 06:06:10;;;;;;;21.52;19.17;;;6.20;99.90;;;;;;4188047;28;20112;-87
2023/02/23 06:08:30;;;;;;;19.63;17.63;;;6.20;99.90;;;;;;4189717;28;20086;-87
2023/02/23 06:10:51;;;;;;;18.48;17.05;;;6.20;99.90;;;;;;4191133;28;20074;-87
2023/02/23 06:13:12;;;;;;;20.13;18.33;;;6.20;99.90;;;;;;4190944;28;20144;-87
2023/02/23 06:15:33;;;;;;;20.27;17.45;;;6.20;99.90;;;;;;4184857;28;20082;-87
2023/02/23 06:17:53;;;;;;;192.10;105.28;;;6.10;99.90;;;;;;4179646;28;20149;-87
2023/02/23 06:20:13;;;;;;;83.57;48.63;;;6.10;99.90;;;;;;4181451;28;20105;-87
2023/02/23 06:22:34;;;;;;;27.92;23.13;;;6.20;99.90;;;;;;4194692;28;20047;-86
2023/02/23 06:24:54;;;;;;;25.15;21.42;;;6.20;99.90;;;;;;4193159;28;20056;-87
2023/02/23 06:27:15;;;;;;;20.05;18.17;;;6.20;99.90;;;;;;4191971;28;20126;-87
2023/02/23 06:29:36;;;;;;;22.90;20.88;;;6.20;99.90;;;;;;4192344;28;20585;-86
2023/02/23 06:31:57;;;;;;;22.65;20.50;;;6.20;99.90;;;;;;4188757;28;20347;-86
2023/02/23 06:34:20;;;;;;;22.05;19.20;;;6.20;99.90;;;;;;4179495;28;20079;-86
2023/02/23 06:36:40;;;;;;;28.67;22.48;;;6.20;99.90;;;;;;4192723;28;20074;-86
2023/02/23 06:39:00;;;;;;;25.90;20.90;;;6.20;99.90;;;;;;4191929;28;20064;-87
2023/02/23 06:41:20;;;;;;;23.52;20.88;;;6.20;99.90;;;;;;4194554;28;20079;-87
2023/02/23 06:43:40;;;;;;;21.38;19.40;;;6.20;99.90;;;;;;4187250;28;20088;-85
2023/02/23 06:46:00;;;;;;;22.10;19.85;;;6.10;99.90;;;;;;4199336;28;20059;-85
2023/02/23 06:48:20;;;;;;;20.92;19.02;;;6.20;99.90;;;;;;4198776;28;20384;-85
2023/02/23 06:50:41;;;;;;;19.42;17.83;;;6.20;99.90;;;;;;4196704;28;20043;-85
2023/02/23 06:53:01;;;;;;;19.70;18.20;;;6.20;99.90;;;;;;4190853;28;20413;-85
2023/02/23 06:55:21;;;;;;;21.48;19.38;;;6.20;99.90;;;;;;4189707;28;20047;-85
2023/02/23 06:57:43;;;;;;;23.15;20.55;;;6.20;99.90;;;;;;4181504;28;20291;-85
2023/02/23 07:00:04;;;;;;;19.45;17.70;;;6.30;99.90;;;;;;4196560;28;20092;-85
2023/02/23 07:02:24;;;;;;;19.65;17.90;;;6.30;99.90;;;;;;4191802;28;20052;-85
2023/02/23 07:04:45;;;;;;;19.00;17.33;;;6.30;99.90;;;;;;4177615;28;20105;-85
2023/02/23 07:07:06;;;;;;;19.02;17.30;;;6.30;99.90;;;;;;4182275;28;20055;-85
2023/02/23 07:09:25;;;;;;;20.17;16.88;;;6.40;99.90;;;;;;4191015;28;20098;-85
2023/02/23 07:11:46;;;;;;;18.98;16.58;;;6.40;99.90;;;;;;4188125;28;20111;-85
2023/02/23 07:14:08;;;;;;;16.55;15.30;;;6.40;99.90;;;;;;4191881;28;20040;-85
2023/02/23 07:16:36;;;;;;;16.77;15.40;;;6.40;99.90;;;;;;4182301;28;20080;-85
2023/02/23 07:18:55;;;;;;;18.58;17.20;;;6.40;99.90;;;;;;4192708;28;20045;-85
2023/02/23 07:21:16;;;;;;;16.70;15.23;;;6.50;99.90;;;;;;4197997;28;20163;-85
2023/02/23 07:23:36;;;;;;;15.68;14.52;;;6.50;99.90;;;;;;4199897;28;20044;-85
2023/02/23 07:25:56;;;;;;;17.10;15.70;;;6.50;99.90;;;;;;4188198;28;20052;-85
2023/02/23 07:28:16;;;;;;;18.35;16.65;;;6.60;99.90;;;;;;4195603;28;20040;-85
2023/02/23 07:30:36;;;;;;;18.02;16.33;;;6.60;99.90;;;;;;4196631;28;20056;-85
2023/02/23 07:32:56;;;;;;;17.75;16.25;;;6.60;99.90;;;;;;4199269;28;20052;-85
2023/02/23 07:35:16;;;;;;;18.55;17.15;;;6.70;99.90;;;;;;4190082;28;20318;-85
2023/02/23 07:37:37;;;;;;;19.23;17.40;;;6.70;99.90;;;;;;4190511;28;20047;-85
2023/02/23 07:39:57;;;;;;;18.77;17.13;;;6.80;99.90;;;;;;4189810;28;20079;-85
2023/02/23 07:42:21;;;;;;;17.73;16.02;;;6.90;99.90;;;;;;4192327;28;20060;-85
2023/02/23 07:44:40;;;;;;;16.75;15.45;;;6.90;99.90;;;;;;4192415;28;20044;-85
2023/02/23 07:47:00;;;;;;;18.95;16.98;;;6.90;99.90;;;;;;4188051;28;20048;-85
2023/02/23 07:49:20;;;;;;;18.17;16.35;;;7.00;99.90;;;;;;4186919;28;20371;-85
2023/02/23 07:51:44;;;;;;;16.95;15.55;;;7.00;99.90;;;;;;4194817;28;20295;-85
2023/02/23 07:54:05;;;;;;;16.67;15.15;;;7.10;99.90;;;;;;4196002;28;20322;-85
2023/02/23 07:56:27;;;;;;;16.38;14.95;;;7.20;99.90;;;;;;4193553;28;20051;-85
2023/02/23 07:58:49;;;;;;;15.65;14.18;;;7.30;99.90;;;;;;4196916;28;20079;-85
2023/02/23 08:01:11;;;;;;;16.88;15.20;;;7.30;99.90;;;;;;4197398;28;20048;-85
2023/02/23 08:03:31;;;;;;;15.68;14.45;;;7.30;99.90;;;;;;4191940;28;20121;-85
2023/02/23 08:05:54;;;;;;;18.80;16.95;;;7.40;99.90;;;;;;4195897;28;20044;-85
2023/02/23 08:08:13;;;;;;;21.65;16.52;;;7.50;99.90;;;;;;4192977;28;20094;-85
2023/02/23 08:10:33;;;;;;;19.00;17.27;;;7.50;99.90;;;;;;4195863;28;20094;-85
2023/02/23 08:12:53;;;;;;;16.13;14.73;;;7.60;99.90;;;;;;4196997;28;20047;-85
2023/02/23 08:15:13;;;;;;;16.70;15.48;;;7.70;99.90;;;;;;4199146;28;20064;-84
2023/02/23 08:17:36;;;;;;;18.08;16.65;;;7.70;99.90;;;;;;4193466;28;20139;-84
2023/02/23 08:19:56;;;;;;;18.08;16.63;;;7.70;99.90;;;;;;4197606;28;20079;-84
2023/02/23 08:22:15;;;;;;;19.98;18.35;;;7.80;99.90;;;;;;4195299;28;20047;-84
2023/02/23 08:24:36;;;;;;;18.88;17.50;;;7.80;99.90;;;;;;4194344;28;20124;-84
2023/02/23 08:27:01;;;;;;;17.98;16.40;;;7.90;99.90;;;;;;4194632;28;20426;-85
2023/02/23 08:29:21;;;;;;;18.45;16.88;;;8.00;99.90;;;;;;4186661;28;20048;-85
2023/02/23 08:31:41;;;;;;;19.75;17.77;;;8.10;99.90;;;;;;4189166;28;20280;-85
2023/02/23 08:34:01;;;;;;;19.85;18.20;;;8.20;99.90;;;;;;4189977;28;20268;-84
2023/02/23 08:36:21;;;;;;;17.70;16.27;;;8.30;99.90;;;;;;4187118;28;20091;-84
2023/02/23 08:38:41;;;;;;;22.27;19.80;;;8.50;99.90;;;;;;4197648;28;20074;-84
2023/02/23 08:41:03;;;;;;;19.67;18.08;;;8.70;99.90;;;;;;4193130;28;20055;-84
2023/02/23 08:43:22;;;;;;;23.52;20.88;;;8.70;99.90;;;;;;4187232;28;20072;-84
2023/02/23 08:45:42;;;;;;;21.85;19.63;;;8.70;99.90;;;;;;4197171;28;20052;-84
2023/02/23 08:48:03;;;;;;;23.70;19.40;;;8.90;99.90;;;;;;4191812;28;20044;-84
2023/02/23 08:50:23;;;;;;;19.23;17.42;;;8.90;99.90;;;;;;4195178;28;20052;-85
2023/02/23 08:52:47;;;;;;;20.17;18.38;;;8.90;99.90;;;;;;4196292;28;20235;-84
2023/02/23 08:55:10;;;;;;;20.05;17.98;;;8.80;99.90;;;;;;4205187;28;20112;-85
2023/02/23 08:57:36;;;;;;;20.75;18.55;;;8.90;99.90;;;;;;4196862;28;20090;-84
2023/02/23 08:59:56;;;;;;;23.40;21.00;;;8.90;99.90;;;;;;4194858;28;20102;-84
2023/02/23 09:02:16;;;;;;;21.35;18.75;;;9.00;99.90;;;;;;4191502;28;20086;-85
2023/02/23 09:04:36;;;;;;;19.90;18.10;;;9.20;99.90;;;;;;4196297;28;20059;-85
2023/02/23 09:06:56;;;;;;;22.40;20.00;;;9.20;99.90;;;;;;4193133;28;20086;-84
2023/02/23 09:09:16;;;;;;;22.92;19.42;;;9.20;99.90;;;;;;4192344;28;20067;-85
2023/02/23 09:11:36;;;;;;;22.05;19.90;;;9.20;99.90;;;;;;4198851;28;20151;-85
2023/02/23 09:13:56;;;;;;;24.65;22.23;;;9.30;99.90;;;;;;4197264;28;20041;-84
2023/02/23 09:16:16;;;;;;;25.40;22.17;;;9.40;99.90;;;;;;4195113;28;20067;-84
2023/02/23 09:18:37;;;;;;;24.48;20.83;;;9.50;99.90;;;;;;4194632;28;20052;-85
2023/02/23 09:20:58;;;;;;;23.52;21.20;;;9.50;99.90;;;;;;4198422;28;20047;-85
2023/02/23 09:23:18;;;;;;;21.88;19.90;;;9.50;99.90;;;;;;4197428;28;20056;-85
2023/02/23 09:25:42;;;;;;;21.15;18.95;;;9.70;99.90;;;;;;4190085;28;20108;-85
2023/02/23 09:28:02;;;;;;;21.48;19.08;;;9.80;99.90;;;;;;4192762;28;20266;-85
2023/02/23 09:30:22;;;;;;;19.90;18.13;;;9.70;99.90;;;;;;4193981;28;20121;-85
2023/02/23 09:32:52;;;;;;;20.00;18.13;;;9.70;99.90;;;;;;4191431;28;20074;-85
2023/02/23 09:35:16;;;;;;;22.33;19.13;;;9.80;99.90;;;;;;4192171;28;20362;-85
2023/02/23 09:37:37;;;;;;;19.83;18.08;;;9.90;99.90;;;;;;4196110;28;20039;-85
2023/02/23 09:39:57;;;;;;;19.55;17.73;;;10.10;99.90;;;;;;4189914;28;20091;-85
2023/02/23 09:42:23;;;;;;;19.15;17.25;;;10.10;99.90;;;;;;4193018;28;20283;-85
2023/02/23 09:44:53;;;;;;;21.83;16.33;;;10.30;99.90;;;;;;4197499;28;20051;-85
2023/02/23 09:47:48;;;;;;;17.20;15.57;;;10.60;99.90;;;;;;4191318;28;20091;-85
2023/02/23 09:50:24;;;;;;;17.73;16.02;;;10.80;99.90;;;;;;4212572;28;20047;-85
2023/02/23 09:52:52;;;;;;;20.15;17.10;;;10.70;99.90;;;;;;4186650;28;20036;-85
2023/02/23 09:55:13;;;;;;;16.23;14.93;;;10.90;99.90;;;;;;4193375;28;20050;-85
2023/02/23 09:57:39;;;;;;;14.50;13.30;;;11.30;99.90;;;;;;4190722;28;20101;-85
2023/02/23 09:59:59;;;;;;;14.95;13.63;;;11.30;99.90;;;;;;4193449;28;20293;-85
2023/02/23 10:02:33;;;;;;;13.80;12.65;;;11.20;99.90;;;;;;4197226;28;20056;-85
2023/02/23 10:04:55;;;;;;;;;;;11.40;99.90;;;;;;4196882;28;20083;-85
2023/02/23 10:07:39;;;;;;;12.63;11.38;;;11.60;99.90;;;;;;4188807;28;20453;-85
2023/02/23 10:10:17;;;;;;;11.57;10.80;;;11.50;99.90;;;;;;4203697;28;20051;-85
2023/02/23 10:13:11;;;;;;;11.63;11.02;;;11.50;99.90;;;;;;4194602;28;20050;-85
2023/02/23 10:15:35;;;;;;;13.98;11.43;;;11.90;99.90;;;;;;4191569;28;20051;-85
2023/02/23 10:18:26;;;;;;;10.02;9.52;;;11.90;99.90;;;;;;4196734;28;20040;-85
2023/02/23 10:21:13;;;;;;;10.13;9.40;;;11.90;99.90;;;;;;4192327;28;20079;-85
2023/02/23 10:23:36;;;;;;;9.15;8.73;;;12.00;99.90;;;;;;4195520;28;20074;-85
2023/02/23 10:25:59;;;;;;;11.05;10.38;;;12.20;99.90;;;;;;4186395;28;20104;-85
2023/02/23 10:28:21;;;;;;;10.38;9.27;;;12.40;99.90;;;;;;4183910;28;20140;-85
2023/02/23 10:30:44;;;;;;;8.98;8.27;;;12.30;99.90;;;;;;4182105;28;20112;-85
2023/02/23 10:33:15;;;;;;;10.05;9.57;;;12.30;99.90;;;;;;4190455;28;20056;-85
2023/02/23 10:35:37;;;;;;;10.00;9.10;;;12.90;99.90;;;;;;4194287;28;20039;-85
2023/02/23 10:38:00;;;;;;;8.07;7.63;;;12.50;99.90;;;;;;4195691;28;20044;-85
2023/02/23 10:40:26;;;;;;;8.52;7.85;;;12.00;99.90;;;;;;4193975;28;20080;-85
2023/02/23 10:42:51;;;;;;;7.72;7.32;;;12.10;99.90;;;;;;4184791;28;20079;-85
2023/02/23 10:45:21;;;;;;;8.80;8.13;;;12.20;99.90;;;;;;4191726;28;20048;-85
2023/02/23 10:47:42;;;;;;;10.13;7.82;;;12.30;99.90;;;;;;4181756;28;20056;-85
2023/02/23 10:50:02;;;;;;;9.02;8.32;;;13.10;99.90;;;;;;4192771;28;20040;-85
2023/02/23 10:52:42;;;;;;;6.95;6.70;;;13.00;99.90;;;;;;4186762;28;20049;-85
2023/02/23 10:55:07;;;;;;;6.28;5.88;;;12.70;99.90;;;;;;4197163;28;20043;-85
2023/02/23 10:57:31;;;;;;;6.05;5.90;;;12.80;99.90;;;;;;4192685;28;20047;-85
2023/02/23 11:00:07;;;;;;;7.13;6.72;;;12.70;99.90;;;;;;4199158;28;20366;-84
2023/02/23 11:02:29;;;;;;;7.60;6.90;;;12.80;99.90;;;;;;4189555;28;20039;-84
2023/02/23 11:04:52;;;;;;;4.95;4.85;;;12.80;99.90;;;;;;4195293;28;20139;-84
2023/02/23 11:07:31;;;;;;;4.85;4.65;;;12.60;99.90;;;;;;4199699;28;20285;-84
2023/02/23 11:09:51;;;;;;;6.35;6.05;;;12.80;99.90;;;;;;4195097;28;20078;-85
2023/02/23 11:12:21;;;;;;;5.78;5.35;;;12.80;99.90;;;;;;4194320;28;20086;-84
2023/02/23 11:14:42;;;;;;;5.65;5.35;;;12.80;99.90;;;;;;4198389;28;20039;-85
2023/02/23 11:17:02;;;;;;;7.85;7.32;;;12.50;99.90;;;;;;4196389;28;20743;-84
2023/02/23 11:19:34;;;;;;;6.65;6.32;;;12.70;99.90;;;;;;4196463;28;20108;-84
2023/02/23 11:21:54;;;;;;;7.30;6.93;;;13.10;99.90;;;;;;4200793;28;20055;-84
2023/02/23 11:24:31;;;;;;;6.78;6.47;;;13.00;99.90;;;;;;4194752;28;20302;-84
2023/02/23 11:27:02;;;;;;;6.43;6.20;;;13.10;99.90;;;;;;4194895;28;20104;-84
2023/02/23 11:29:33;;;;;;;6.15;5.68;;;13.40;99.90;;;;;;4201863;28;20051;-84
2023/02/23 11:31:57;;;;;;;6.90;6.50;;;13.00;99.90;;;;;;4193593;28;20055;-84
2023/02/23 11:34:32;;;;;;;5.30;5.13;;;12.80;99.90;;;;;;4192190;28;20040;-84
2023/02/23 11:37:05;;;;;;;5.80;5.40;;;12.90;99.90;;;;;;4180463;28;20068;-85
2023/02/23 11:39:25;;;;;;;5.40;5.10;;;13.20;99.90;;;;;;4195999;28;20044;-84
2023/02/23 11:41:45;;;;;;;5.93;5.03;;;13.00;99.90;;;;;;4190247;28;20056;-85
2023/02/23 11:44:05;;;;;;;6.60;6.32;;;13.10;99.90;;;;;;4194399;28;20121;-84
2023/02/23 11:46:28;;;;;;;5.70;5.50;;;13.00;99.90;;;;;;4201225;28;20098;-85
2023/02/23 11:49:07;;;;;;;6.20;5.85;;;12.90;99.90;;;;;;4189075;28;20053;-85
2023/02/23 11:51:32;;;;;;;6.03;5.57;;;12.70;99.90;;;;;;4213939;28;20424;-85
2023/02/23 11:53:53;;;;;;;5.18;5.00;;;13.30;99.90;;;;;;4187402;28;20060;-85
2023/02/23 11:56:19;;;;;;;5.95;5.40;;;13.00;99.90;;;;;;4188015;28;20052;-85
2023/02/23 11:58:48;;;;;;;6.68;6.47;;;13.00;99.90;;;;;;4188024;28;20109;-85
2023/02/23 12:01:12;;;;;;;7.05;6.78;;;13.10;99.90;;;;;;4194564;28;20128;-85
2023/02/23 12:03:33;;;;;;;5.50;5.25;;;13.50;99.90;;;;;;4190013;28;20093;-85
2023/02/23 12:05:57;;;;;;;5.60;5.22;;;13.70;99.90;;;;;;4194457;28;20260;-86
2023/02/23 12:08:27;;;;;;;5.93;5.80;;;13.60;99.90;;;;;;4190687;28;20051;-85
2023/02/23 12:10:52;;;;;;;6.00;5.90;;;13.10;99.90;;;;;;4192011;28;20056;-85
2023/02/23 12:13:40;;;;;;;7.65;7.35;;;12.90;99.90;;;;;;4196015;28;20039;-85
2023/02/23 12:16:04;;;;;;;6.80;6.60;;;13.30;99.90;;;;;;4197885;28;20048;-84
2023/02/23 12:19:00;;;;;;;5.97;5.70;;;13.10;99.90;;;;;;4195514;28;20043;-85
2023/02/23 12:21:38;;;;;;;7.97;6.53;;;13.20;99.90;;;;;;4197095;28;20091;-85
2023/02/23 12:24:18;;;;;;;6.70;6.40;;;13.40;99.90;;;;;;4176898;28;20083;-85
2023/02/23 12:26:53;;;;;;;5.82;5.63;;;13.10;99.90;;;;;;4174692;28;20090;-84
2023/02/23 12:29:32;;;;;;;6.05;5.85;;;13.30;99.90;;;;;;4192638;28;20056;-85
2023/02/23 12:32:01;;;;;;;6.35;5.85;;;13.50;99.90;;;;;;4195111;28;20244;-84
2023/02/23 12:34:42;;;;;;;6.75;5.82;;;13.50;99.90;;;;;;4186632;28;20048;-85
2023/02/23 12:37:35;;;;;;;5.47;5.28;;;13.70;99.90;;;;;;4184662;28;20093;-85
2023/02/23 12:40:04;;;;;;;5.78;5.32;;;13.50;99.90;;;;;;4188451;28;20044;-85
2023/02/23 12:42:24;;;;;;;5.20;5.05;;;13.40;99.90;;;;;;4185753;28;20044;-85
2023/02/23 12:44:59;;;;;;;5.93;5.20;;;13.90;99.90;;;;;;4189763;28;20063;-85
2023/02/23 12:47:25;;;;;;;5.05;4.75;;;13.50;99.90;;;;;;4188115;28;20394;-85
2023/02/23 12:50:12;;;;;;;5.63;5.43;;;13.70;99.90;;;;;;4185601;28;20165;-85
2023/02/23 12:52:37;;;;;;;5.68;5.28;;;14.00;99.90;;;;;;4193446;28;20044;-85
2023/02/23 12:54:57;;;;;;;4.85;4.75;;;13.70;99.90;;;;;;4194188;28;20098;-85
2023/02/23 12:57:37;;;;;;;4.72;4.50;;;13.70;99.90;;;;;;4193970;28;20047;-85
2023/02/23 13:00:23;;;;;;;6.43;6.22;;;13.50;99.90;;;;;;4190276;28;20044;-86
2023/02/23 13:02:53;;;;;;;5.15;4.88;;;13.70;99.90;;;;;;4184077;28;20107;-86
2023/02/23 13:05:36;;;;;;;5.28;5.07;;;13.40;99.90;;;;;;4192421;28;20041;-86
2023/02/23 13:08:08;;;;;;;5.10;5.00;;;13.50;99.90;;;;;;4195453;28;20083;-86
2023/02/23 13:11:12;;;;;;;6.10;5.88;;;13.40;99.90;;;;;;4189260;28;20040;-85
2023/02/23 13:13:50;;;;;;;4.68;4.50;;;13.70;99.90;;;;;;4192417;28;20044;-85
2023/02/23 13:16:20;;;;;;;6.35;5.50;;;14.20;99.90;;;;;;4198298;28;20427;-85
2023/02/23 13:19:31;;;;;;;6.10;5.80;;;13.70;99.90;;;;;;4196699;28;20086;-85
2023/02/23 13:22:20;;;;;;;4.93;4.63;;;13.70;99.90;;;;;;4199711;28;20236;-85
2023/02/23 13:24:46;;;;;;;4.28;4.18;;;13.70;99.90;;;;;;4187558;28;20127;-85
2023/02/23 13:27:19;;;;;;;6.05;5.75;;;13.60;99.90;;;;;;4203745;28;20280;-85
2023/02/23 13:29:45;;;;;;;6.03;5.68;;;13.60;99.90;;;;;;4192333;28;20056;-84
2023/02/23 13:32:12;;;;;;;6.35;5.97;;;13.50;99.90;;;;;;4191583;28;20090;-84
2023/02/23 13:34:38;;;;;;;5.78;5.53;;;13.70;99.90;;;;;;4194687;28;20263;-85
2023/02/23 13:37:01;;;;;;;6.28;6.00;;;13.60;99.90;;;;;;4192675;28;20044;-84
2023/02/23 13:39:33;;;;;;;6.50;6.18;;;13.20;99.90;;;;;;4180754;28;20044;-84
2023/02/23 13:42:17;;;;;;;7.10;6.53;;;13.10;99.90;;;;;;4190014;28;20040;-84
2023/02/23 13:45:15;;;;;;;5.93;5.72;;;13.10;99.90;;;;;;4195944;28;20095;-85
2023/02/23 13:47:44;;;;;;;5.72;5.43;;;13.10;99.90;;;;;;4175820;28;20086;-85